Time;durP1;ratioP1;P1;durP2;ratioP2;P2;SDS_P1;SDS_P2;PMS_P1;PMS_P2;Temp;Humidity;BMP_temperature;BMP_pressure;BME280_temperature;BME280_humidity;BME280_pressure;Samples;Min_cycle;Max_cycle;Signal;HPM_P1;HPM_P2
2023/09/02 00:02:26;;;;;;;14.30;12.97;;;;;;;17.72;100.00;101441.72;5201427;28;20038;-83
2023/09/02 00:04:57;;;;;;;13.43;12.13;;;;;;;17.73;100.00;101433.75;5200515;28;20447;-82
2023/09/02 00:07:29;;;;;;;13.83;12.33;;;;;;;17.73;100.00;101427.63;5200346;28;20026;-83
2023/09/02 00:10:00;;;;;;;13.13;11.93;;;;;;;17.73;100.00;101425.00;5201573;28;20030;-83
2023/09/02 00:12:32;;;;;;;14.83;13.40;;;;;;;17.70;100.00;101427.72;5201036;28;20034;-83
2023/09/02 00:15:03;;;;;;;14.45;13.13;;;;;;;17.73;100.00;101427.63;5218351;28;20104;-83
2023/09/02 00:17:35;;;;;;;13.85;12.52;;;;;;;17.73;100.00;101436.41;5221711;28;20536;-82
2023/09/02 00:20:10;;;;;;;13.43;12.10;;;;;;;17.79;100.00;101433.56;5221928;28;20033;-82
2023/09/02 00:22:41;;;;;;;13.93;12.73;;;;;;;17.70;100.00;101441.75;5221829;28;20088;-82
2023/09/02 00:25:13;;;;;;;13.80;12.60;;;;;;;17.71;100.00;101432.06;5221718;28;20034;-83
2023/09/02 00:27:44;;;;;;;13.53;12.33;;;;;;;17.69;100.00;101426.84;5203339;28;20029;-84
2023/09/02 00:30:15;;;;;;;13.50;12.30;;;;;;;17.66;100.00;101433.09;5221439;28;20034;-83
2023/09/02 00:32:47;;;;;;;13.80;12.50;;;;;;;17.49;100.00;101430.97;5222111;28;20037;-83
2023/09/02 00:35:18;;;;;;;13.47;12.27;;;;;;;17.61;100.00;101436.78;5221930;28;20030;-82
2023/09/02 00:37:50;;;;;;;13.87;12.67;;;;;;;17.61;100.00;101440.31;5221780;28;20033;-84
2023/09/02 00:40:24;;;;;;;14.10;12.80;;;;;;;17.57;100.00;101450.97;5221804;28;20486;-82
2023/09/02 00:42:57;;;;;;;14.27;12.90;;;;;;;17.48;100.00;101447.72;5221295;28;20037;-82
2023/09/02 00:45:29;;;;;;;15.25;13.85;;;;;;;17.45;100.00;101452.22;5221508;28;20112;-83
2023/09/02 00:48:01;;;;;;;14.07;12.93;;;;;;;17.57;100.00;101443.06;5221568;28;20025;-83
2023/09/02 00:50:35;;;;;;;14.33;12.83;;;;;;;17.64;100.00;101453.34;5221537;28;20382;-83
2023/09/02 00:53:06;;;;;;;15.45;13.20;;;;;;;17.55;100.00;101443.13;5203987;28;20383;-82
2023/09/02 00:55:39;;;;;;;14.67;13.30;;;;;;;17.61;100.00;101442.94;5221770;28;20037;-83
2023/09/02 00:58:11;;;;;;;14.73;13.38;;;;;;;17.57;100.00;101450.97;5221517;28;20033;-82
2023/09/02 01:00:44;;;;;;;14.05;12.75;;;;;;;17.61;100.00;101449.97;5221491;28;20041;-83
2023/09/02 01:03:15;;;;;;;14.13;12.93;;;;;;;17.61;100.00;101450.84;5221686;28;20083;-83
2023/09/02 01:05:47;;;;;;;15.23;13.73;;;;;;;17.55;100.00;101442.25;5220898;28;20045;-83
2023/09/02 01:08:19;;;;;;;15.30;13.77;;;;;;;17.48;100.00;101445.09;5203381;28;20034;-82
2023/09/02 01:10:51;;;;;;;15.43;13.90;;;;;;;17.48;100.00;101444.22;5203182;28;20462;-82
2023/09/02 01:13:23;;;;;;;15.27;13.60;;;;;;;17.48;100.00;101444.22;5220669;28;20054;-82
2023/09/02 01:15:55;;;;;;;14.33;13.07;;;;;;;17.56;100.00;101451.88;5203784;28;20084;-82
2023/09/02 01:18:27;;;;;;;15.43;14.02;;;;;;;17.57;100.00;101453.63;5220996;28;20458;-81
2023/09/02 01:21:23;;;;;;;15.30;13.88;;;;;;;17.42;100.00;101463.72;5221063;28;20080;-80
2023/09/02 01:24:31;;;;;;;13.95;12.75;;;;;;;17.51;100.00;101452.03;5221022;28;20564;-82
2023/09/02 01:27:35;;;;;;;16.90;14.27;;;;;;;17.45;100.00;101461.00;5221138;28;20073;-82
2023/09/02 01:30:19;;;;;;;16.88;14.63;;;;;;;17.40;100.00;101457.63;5220641;28;20029;-82
2023/09/02 01:32:54;;;;;;;14.10;12.80;;;;;;;17.45;100.00;101461.00;5203180;28;20059;-83
2023/09/02 01:35:29;;;;;;;16.13;14.45;;;;;;;17.35;100.00;101458.69;5221053;28;20088;-83
2023/09/02 01:38:05;;;;;;;17.65;13.93;;;;;;;17.40;100.00;101456.75;5222207;28;20064;-83
2023/09/02 01:40:42;;;;;;;15.18;13.77;;;;;;;17.43;100.00;101459.31;5213463;28;20077;-83
2023/09/02 01:43:17;;;;;;;16.17;14.55;;;;;;;17.46;100.00;101462.69;5204691;28;20462;-84
2023/09/02 01:45:50;;;;;;;17.55;15.85;;;;;;;17.50;100.00;101461.72;5186366;28;20030;-84
2023/09/02 01:48:23;;;;;;;21.13;16.95;;;;;;;17.54;100.00;101464.25;5187218;28;20061;-83
2023/09/02 01:50:57;;;;;;;15.43;13.93;;;;;;;17.47;100.00;101472.34;5204302;28;20488;-82
2023/09/02 01:53:29;;;;;;;15.25;13.82;;;;;;;17.53;100.00;101465.16;5204509;28;20026;-83
2023/09/02 01:56:02;;;;;;;14.52;13.07;;;;;;;17.51;100.00;101475.75;5203940;28;20042;-83
2023/09/02 01:58:33;;;;;;;15.27;13.73;;;;;;;17.53;100.00;101479.19;5204587;28;20042;-83
2023/09/02 02:01:05;;;;;;;13.53;12.30;;;;;;;17.53;100.00;101473.06;5187274;28;20037;-83
2023/09/02 02:03:41;;;;;;;12.50;11.37;;;;;;;17.50;100.00;101474.91;5205099;28;20034;-85
2023/09/02 02:06:12;;;;;;;12.68;11.57;;;;;;;17.51;100.00;101475.75;5205449;28;20134;-83
2023/09/02 02:08:55;;;;;;;14.32;12.93;;;;;;;17.47;100.00;101477.63;5204663;28;20065;-83
2023/09/02 02:11:29;;;;;;;14.70;13.30;;;;;;;17.44;100.00;101480.34;5187325;28;20026;-83
2023/09/02 02:14:02;;;;;;;14.93;13.20;;;;;;;17.33;100.00;101482.44;5206625;28;20066;-83
2023/09/02 02:16:34;;;;;;;13.43;12.23;;;;;;;17.31;100.00;101473.72;5205462;28;20077;-83
2023/09/02 02:19:05;;;;;;;12.47;11.27;;;;;;;17.32;100.00;101472.81;5187381;28;20030;-84
2023/09/02 02:21:37;;;;;;;14.07;12.23;;;;;;;17.20;100.00;101474.03;5187465;28;20038;-84
2023/09/02 02:24:08;;;;;;;12.10;10.90;;;;;;;17.27;100.00;101482.63;5204042;28;20426;-83
2023/09/02 02:26:40;;;;;;;14.90;12.83;;;;;;;17.25;100.00;101484.44;5204017;28;20042;-83
2023/09/02 02:29:11;;;;;;;12.85;11.65;;;;;;;17.24;100.00;101482.72;5186556;28;20034;-83
2023/09/02 02:31:43;;;;;;;12.00;10.90;;;;;;;17.36;100.00;101490.25;5203883;28;20034;-84
2023/09/02 02:34:14;;;;;;;13.57;11.33;;;;;;;17.37;100.00;101488.47;5203777;28;20061;-83
2023/09/02 02:36:46;;;;;;;13.53;12.13;;;;;;;17.26;100.00;101487.03;5203943;28;20032;-82
2023/09/02 02:39:17;;;;;;;12.40;11.27;;;;;;;17.23;100.00;101496.81;5204658;28;20053;-81
2023/09/02 02:41:49;;;;;;;12.35;11.15;;;;;;;17.29;100.00;101496.59;5185844;28;20044;-80
2023/09/02 02:44:20;;;;;;;12.40;11.17;;;;;;;17.30;100.00;101493.06;5204194;28;20092;-81
2023/09/02 02:46:52;;;;;;;11.33;10.43;;;;;;;17.32;100.00;101499.16;5204183;28;20103;-82
2023/09/02 02:49:23;;;;;;;11.83;10.77;;;;;;;17.34;100.00;101494.72;5169876;28;20484;-83
2023/09/02 02:51:56;;;;;;;11.70;10.60;;;;;;;17.31;100.00;101497.44;5203537;28;20038;-83
2023/09/02 02:54:27;;;;;;;13.00;10.85;;;;;;;17.33;100.00;101492.97;5186677;28;20048;-83
2023/09/02 02:56:58;;;;;;;13.43;10.13;;;;;;;17.36;100.00;101497.31;5203404;28;20121;-82
2023/09/02 02:59:30;;;;;;;10.67;9.57;;;;;;;17.35;100.00;101493.78;5203244;28;20034;-83
2023/09/02 03:02:01;;;;;;;10.90;9.60;;;;;;;17.28;100.00;101495.75;5202938;28;20050;-83
2023/09/02 03:04:33;;;;;;;10.77;9.73;;;;;;;17.33;100.00;101498.25;5203572;28;20041;-83
2023/09/02 03:07:04;;;;;;;11.63;10.53;;;;;;;17.35;100.00;101501.69;5185892;28;20026;-83
2023/09/02 03:09:35;;;;;;;10.73;9.73;;;;;;;17.33;100.00;101500.88;5202994;28;20077;-82
2023/09/02 03:12:07;;;;;;;11.70;9.83;;;;;;;17.30;100.00;101493.06;5185142;28;20034;-83
2023/09/02 03:14:39;;;;;;;14.80;9.23;;;;;;;17.23;100.00;101492.41;5202482;28;20058;-83
2023/09/02 03:17:10;;;;;;;18.20;10.13;;;;;;;17.17;100.00;101489.09;5203118;28;20030;-83
2023/09/02 03:19:44;;;;;;;13.23;9.50;;;;;;;17.19;100.00;101496.00;5202717;28;20052;-84
2023/09/02 03:22:16;;;;;;;11.05;9.70;;;;;;;17.19;100.00;101496.00;5203543;28;20031;-84
2023/09/02 03:24:53;;;;;;;10.97;9.80;;;;;;;17.14;100.00;101490.03;5186980;28;20030;-84
2023/09/02 03:27:24;;;;;;;11.10;8.48;;;;;;;17.13;100.00;101483.91;5203347;28;20023;-83
2023/09/02 03:29:56;;;;;;;12.17;8.40;;;;;;;17.12;100.00;101494.47;5202416;28;20026;-83
2023/09/02 03:32:27;;;;;;;9.40;8.50;;;;;;;17.04;100.00;101493.84;5202645;28;20042;-82
2023/09/02 03:34:59;;;;;;;10.73;8.40;;;;;;;16.99;100.00;101493.97;5184710;28;20352;-83
2023/09/02 03:37:30;;;;;;;17.35;8.43;;;;;;;16.95;100.00;101500.22;5202120;28;20390;-83
2023/09/02 03:40:03;;;;;;;10.40;7.93;;;;;;;16.93;100.00;101504.66;5202245;28;20049;-83
2023/09/02 03:42:34;;;;;;;9.38;8.40;;;;;;;16.89;100.00;101509.16;5184788;28;20044;-83
2023/09/02 03:45:07;;;;;;;10.03;7.50;;;;;;;16.95;100.00;101513.38;5202395;28;20117;-83
2023/09/02 03:47:39;;;;;;;10.07;8.52;;;;;;;16.89;100.00;101518.84;5202383;28;20439;-83
2023/09/02 03:50:10;;;;;;;9.83;8.83;;;;;;;16.91;100.00;101523.13;5184607;28;20058;-83
2023/09/02 03:52:42;;;;;;;9.17;8.37;;;;;;;16.98;100.00;101518.56;5202062;28;20026;-84
2023/09/02 03:55:13;;;;;;;9.67;8.77;;;;;;;16.96;100.00;101520.38;5185727;28;20042;-84
2023/09/02 03:57:47;;;;;;;11.23;9.03;;;;;;;16.98;100.00;101518.56;5185656;28;20034;-84
2023/09/02 04:00:19;;;;;;;9.85;8.95;;;;;;;17.01;100.00;101523.75;5185353;28;20421;-84
2023/09/02 04:02:50;;;;;;;9.73;8.43;;;;;;;17.07;100.00;101522.72;5202711;28;20050;-82
2023/09/02 04:05:22;;;;;;;9.63;8.17;;;;;;;17.01;100.00;101513.22;5168625;28;20048;-84
2023/09/02 04:07:53;;;;;;;9.17;7.50;;;;;;;16.98;100.00;101513.28;5202176;28;20034;-84
2023/09/02 04:10:24;;;;;;;9.73;7.60;;;;;;;17.01;100.00;101515.00;5184362;28;20030;-83
2023/09/02 04:12:56;;;;;;;7.10;6.40;;;;;;;16.99;100.00;101520.31;5201304;28;20132;-83
2023/09/02 04:15:27;;;;;;;8.50;5.67;;;;;;;17.01;100.00;101518.47;5201671;28;20061;-82
2023/09/02 04:18:01;;;;;;;9.37;6.03;;;;;;;16.98;100.00;101510.66;5201400;28;20053;-82
2023/09/02 04:20:35;;;;;;;6.88;5.80;;;;;;;17.01;100.00;101522.91;5184059;28;20513;-84
2023/09/02 04:23:07;;;;;;;9.27;5.60;;;;;;;16.97;100.00;101510.69;5201238;28;20026;-84
2023/09/02 04:25:46;;;;;;;8.17;5.57;;;;;;;16.91;100.00;101522.28;5201697;28;20382;-83
2023/09/02 04:28:19;;;;;;;10.23;5.80;;;;;;;16.91;100.00;101527.56;5200924;28;20505;-84
2023/09/02 04:30:56;;;;;;;7.22;5.55;;;;;;;16.86;100.00;101525.03;5201288;28;20105;-82
2023/09/02 04:33:27;;;;;;;6.93;5.78;;;;;;;16.88;100.00;101520.59;5201974;28;20034;-83
2023/09/02 04:36:00;;;;;;;6.30;5.68;;;;;;;16.80;100.00;101526.94;5202584;28;20080;-83
2023/09/02 04:38:34;;;;;;;;;;;;;;;16.92;100.00;101529.25;5202463;28;20371;-83
2023/09/02 04:41:08;;;;;;;7.75;4.82;;;;;;;16.84;100.00;101539.09;5203002;28;19920;-82
2023/09/02 04:43:41;;;;;;;9.60;5.90;;;;;;;16.87;100.00;101533.78;5201712;28;20026;-82
2023/09/02 04:46:12;;;;;;;8.27;5.00;;;;;;;16.82;100.00;101533.88;5201235;28;20490;-82
2023/09/02 04:48:46;;;;;;;7.40;5.03;;;;;;;16.83;100.00;101532.13;5201494;28;20026;-82
2023/09/02 04:51:18;;;;;;;6.85;5.20;;;;;;;16.78;100.00;101535.75;5200952;28;20022;-82
2023/09/02 04:53:49;;;;;;;10.10;5.43;;;;;;;16.74;100.00;101535.84;5200799;28;20045;-82
2023/09/02 04:56:21;;;;;;;6.53;5.70;;;;;;;16.81;100.00;101539.19;5200448;28;20026;-82
2023/09/02 04:58:52;;;;;;;7.97;5.73;;;;;;;16.77;100.00;101547.16;5183251;28;20069;-81
2023/09/02 05:01:23;;;;;;;6.37;5.77;;;;;;;16.72;100.00;101535.91;5200695;28;20023;-83
2023/09/02 05:03:55;;;;;;;6.83;5.33;;;;;;;16.73;100.00;101537.63;5200755;28;20062;-83
2023/09/02 05:06:26;;;;;;;8.47;5.57;;;;;;;16.78;100.00;101538.38;5200867;28;20504;-83
2023/09/02 05:08:57;;;;;;;9.00;5.60;;;;;;;16.83;100.00;101542.66;5200533;28;20035;-83
2023/09/02 05:11:29;;;;;;;7.17;5.20;;;;;;;16.85;100.00;101540.84;5182944;28;20030;-83
2023/09/02 05:14:00;;;;;;;6.30;4.97;;;;;;;16.74;100.00;101546.38;5203151;28;20128;-81
2023/09/02 05:16:32;;;;;;;6.67;5.37;;;;;;;16.65;100.00;101549.28;5204916;28;20045;-81
2023/09/02 05:19:03;;;;;;;7.07;5.57;;;;;;;16.67;100.00;101553.59;5204807;28;20084;-81
2023/09/02 05:21:35;;;;;;;11.13;5.90;;;;;;;16.59;100.00;101569.56;5205804;28;20030;-82
2023/09/02 05:24:07;;;;;;;11.68;5.97;;;;;;;16.55;100.00;101567.94;5205207;28;20034;-81
2023/09/02 05:26:38;;;;;;;5.73;4.93;;;;;;;16.59;100.00;101563.44;5187175;28;20038;-81
2023/09/02 05:29:10;;;;;;;9.37;6.00;;;;;;;16.51;100.00;101566.28;5187254;28;20421;-81
2023/09/02 05:31:41;;;;;;;6.23;5.63;;;;;;;16.51;100.00;101566.28;5204931;28;20034;-82
2023/09/02 05:34:12;;;;;;;6.93;5.80;;;;;;;16.51;100.00;101576.81;5204750;28;20126;-83
2023/09/02 05:36:44;;;;;;;10.87;5.43;;;;;;;16.54;100.00;101586.41;5204813;28;20031;-82
2023/09/02 05:39:15;;;;;;;9.40;5.97;;;;;;;16.61;100.00;101581.84;5204475;28;20054;-82
2023/09/02 05:41:47;;;;;;;8.20;5.20;;;;;;;16.59;100.00;101589.78;5187510;28;20041;-82
2023/09/02 05:44:18;;;;;;;12.20;5.37;;;;;;;16.70;100.00;101587.72;5205916;28;20027;-82
2023/09/02 05:46:50;;;;;;;6.70;5.67;;;;;;;16.75;100.00;101583.22;5189387;28;20030;-81
2023/09/02 05:49:21;;;;;;;9.13;6.70;;;;;;;16.76;100.00;101584.94;5207695;28;20093;-82
2023/09/02 05:51:53;;;;;;;7.60;5.83;;;;;;;16.84;100.00;101592.66;5210120;28;20058;-80
2023/09/02 05:54:24;;;;;;;7.00;5.83;;;;;;;16.92;100.00;101582.81;5196120;28;20484;-81
2023/09/02 05:56:55;;;;;;;8.13;5.50;;;;;;;17.02;100.00;101586.06;5197769;28;20030;-82
2023/09/02 05:59:27;;;;;;;9.60;6.13;;;;;;;17.02;100.00;101596.59;5196969;28;20058;-81
2023/09/02 06:01:59;;;;;;;6.90;6.03;;;;;;;17.02;100.00;101590.47;5215182;28;20033;-81
2023/09/02 06:04:30;;;;;;;9.90;6.15;;;;;;;17.09;100.00;101594.66;5215725;28;20082;-83
2023/09/02 06:07:02;;;;;;;11.67;6.63;;;;;;;17.13;100.00;101591.91;5211608;28;20073;-81
2023/09/02 06:09:33;;;;;;;12.23;6.70;;;;;;;17.24;100.00;101593.38;5209057;28;20109;-80
2023/09/02 06:12:04;;;;;;;9.70;6.83;;;;;;;17.24;100.00;101596.88;5205256;28;20466;-79
2023/09/02 06:14:36;;;;;;;16.23;6.87;;;;;;;17.23;100.00;101602.19;5204318;28;20502;-79
2023/09/02 06:17:08;;;;;;;9.93;6.83;;;;;;;17.23;100.00;101608.31;5205011;28;20034;-79
2023/09/02 06:19:40;;;;;;;11.90;7.20;;;;;;;17.29;100.00;101617.81;5204740;28;20030;-80
2023/09/02 06:22:11;;;;;;;10.60;7.10;;;;;;;17.40;100.00;101617.53;5205578;28;20394;-80
2023/09/02 06:24:42;;;;;;;11.90;7.47;;;;;;;17.50;100.00;101614.59;5203559;28;20034;-79
2023/09/02 06:27:14;;;;;;;8.83;6.17;;;;;;;17.58;100.00;101624.03;5205200;28;20030;-80
2023/09/02 06:29:45;;;;;;;7.57;6.63;;;;;;;17.57;100.00;101624.97;5204225;28;20117;-79
2023/09/02 06:32:16;;;;;;;9.30;6.73;;;;;;;17.63;100.00;101633.56;5204656;28;20030;-79
2023/09/02 06:34:48;;;;;;;8.60;6.77;;;;;;;17.78;100.00;101645.44;5204821;28;20104;-79
2023/09/02 06:37:19;;;;;;;8.37;6.23;;;;;;;17.86;100.00;101646.06;5204357;28;20026;-78
2023/09/02 06:39:54;;;;;;;8.40;7.03;;;;;;;17.88;100.00;101653.97;5187092;28;20046;-79
2023/09/02 06:42:25;;;;;;;9.32;6.82;;;;;;;17.90;100.00;101652.13;5205872;28;20532;-80
2023/09/02 06:44:57;;;;;;;7.70;6.30;;;;;;;18.01;100.00;101659.75;5205832;28;20086;-80
2023/09/02 06:47:28;;;;;;;9.37;7.13;;;;;;;18.08;100.00;101663.06;5204334;28;20053;-79
2023/09/02 06:49:59;;;;;;;8.20;7.40;;;;;;;18.06;100.00;101665.75;5171844;28;20034;-79
2023/09/02 06:52:31;;;;;;;10.13;7.67;;;;;;;18.12;100.00;101667.34;5204306;28;20030;-79
2023/09/02 06:55:03;;;;;;;8.93;7.97;;;;;;;18.10;100.00;101685.00;5205161;28;20034;-80
2023/09/02 06:57:35;;;;;;;10.88;7.32;;;;;;;18.24;100.00;101685.47;5186260;28;20117;-80
2023/09/02 07:00:07;;;;;;;7.63;6.82;;;;;;;18.28;100.00;101689.72;5189036;28;20502;-78
2023/09/02 07:02:42;;;;;;;10.30;8.77;;;;;;;18.31;100.00;101696.69;5203236;28;20455;-79
2023/09/02 07:05:13;;;;;;;7.78;6.93;;;;;;;18.48;100.00;101702.31;5203069;28;20031;-80
2023/09/02 07:07:48;;;;;;;9.57;7.53;;;;;;;18.59;100.00;101704.59;5185099;28;20041;-79
2023/09/02 07:10:19;;;;;;;8.77;7.32;;;;;;;18.61;100.00;101705.41;5185249;28;20069;-79
2023/09/02 07:12:53;;;;;;;9.47;8.00;;;;;;;18.62;100.00;101709.78;5184660;28;20453;-80
2023/09/02 07:15:24;;;;;;;8.70;7.75;;;;;;;18.81;100.00;101715.34;5202550;28;20046;-80
2023/09/02 07:17:55;;;;;;;10.20;7.90;;;;;;;18.94;100.00;101721.97;5201811;28;20033;-80
2023/09/02 07:20:27;;;;;;;8.57;7.60;;;;;;;19.05;100.00;101723.41;5203257;28;20042;-79
2023/09/02 07:22:58;;;;;;;8.10;7.30;;;;;;;19.07;100.00;101716.28;5202615;28;20053;-80
2023/09/02 07:25:30;;;;;;;8.70;7.43;;;;;;;19.10;100.00;101729.41;5202210;28;20097;-79
2023/09/02 07:28:01;;;;;;;9.37;7.53;;;;;;;19.16;100.00;101721.28;5200077;28;20038;-80
2023/09/02 07:30:37;;;;;;;10.23;8.10;;;;;;;19.24;100.00;101724.50;5202385;28;20043;-80
2023/09/02 07:33:09;;;;;;;9.75;8.15;;;;;;;19.34;100.00;101730.34;5202964;28;20022;-79
2023/09/02 07:35:40;;;;;;;9.33;7.67;;;;;;;19.41;100.00;101736.28;5200603;28;20446;-80
2023/09/02 07:38:12;;;;;;;9.60;7.50;;;;;;;19.54;100.00;101737.56;5202181;28;20034;-80
2023/09/02 07:40:43;;;;;;;9.67;8.57;;;;;;;19.50;100.00;101738.63;5201652;28;20097;-80
2023/09/02 07:43:14;;;;;;;9.57;7.83;;;;;;;19.53;100.00;101734.97;5201711;28;20038;-80
2023/09/02 07:45:47;;;;;;;10.03;7.73;;;;;;;19.36;100.00;101739.09;5201249;28;20026;-79
2023/09/02 07:48:19;;;;;;;9.43;7.90;;;;;;;19.50;100.00;101750.03;5202207;28;20419;-80
2023/09/02 07:50:50;;;;;;;12.23;8.50;;;;;;;19.49;100.00;101750.09;5201473;28;20084;-79
2023/09/02 07:53:22;;;;;;;10.90;8.73;;;;;;;19.54;100.00;101747.28;5201983;28;20076;-80
2023/09/02 07:55:53;;;;;;;10.27;8.90;;;;;;;19.58;100.00;101754.22;5201396;28;20414;-80
2023/09/02 07:58:25;;;;;;;10.17;9.17;;;;;;;19.60;100.00;101749.72;5201642;28;20039;-80
2023/09/02 08:00:56;;;;;;;10.60;9.67;;;;;;;19.73;100.00;101753.66;5201053;28;20038;-80
2023/09/02 08:03:28;;;;;;;11.15;10.05;;;;;;;19.84;100.00;101761.25;5201690;28;20390;-80
2023/09/02 08:06:06;;;;;;;11.60;10.40;;;;;;;19.85;100.00;101755.03;5200561;28;20034;-80
2023/09/02 08:08:38;;;;;;;12.38;11.23;;;;;;;19.85;100.00;101757.66;5201518;28;20037;-80
2023/09/02 08:11:11;;;;;;;14.03;12.53;;;;;;;19.74;100.00;101751.88;5200639;28;20034;-80
2023/09/02 08:13:42;;;;;;;14.68;13.27;;;;;;;19.55;100.00;101775.47;5200889;28;20026;-79
2023/09/02 08:16:16;;;;;;;14.13;12.73;;;;;;;19.68;100.00;101774.13;5200493;28;20157;-81
2023/09/02 08:18:47;;;;;;;15.30;13.73;;;;;;;19.72;100.00;101777.53;5183897;28;20034;-80
2023/09/02 08:21:21;;;;;;;15.73;14.37;;;;;;;19.81;100.00;101774.59;5200724;28;20034;-79
2023/09/02 08:23:53;;;;;;;15.50;14.20;;;;;;;19.79;100.00;101769.34;5201079;28;20060;-79
2023/09/02 08:26:24;;;;;;;15.13;13.67;;;;;;;19.94;100.00;101767.06;5200589;28;20475;-80
2023/09/02 08:28:56;;;;;;;18.75;17.10;;;;;;;19.94;100.00;101767.94;5201073;28;20459;-80
2023/09/02 08:31:27;;;;;;;17.33;15.87;;;;;;;19.89;100.00;101769.03;5200287;28;20034;-80
2023/09/02 08:33:58;;;;;;;16.07;14.77;;;;;;;19.88;100.00;101778.72;5200880;28;20534;-79
2023/09/02 08:36:30;;;;;;;17.27;15.80;;;;;;;19.86;100.00;101788.50;5200264;28;20462;-80
2023/09/02 08:39:01;;;;;;;18.03;16.53;;;;;;;19.91;100.00;101794.50;5201084;28;20644;-80
2023/09/02 08:41:35;;;;;;;16.70;15.07;;;;;;;19.96;100.00;101787.25;5199574;28;20157;-80
2023/09/02 08:44:09;;;;;;;16.98;15.63;;;;;;;19.97;100.00;101788.97;5196050;28;20404;-80
2023/09/02 08:46:45;;;;;;;20.20;18.35;;;;;;;20.09;100.00;101797.41;5182839;28;20113;-80
2023/09/02 08:49:16;;;;;;;18.02;16.42;;;;;;;20.01;100.00;101801.19;5200084;28;20041;-79
2023/09/02 08:51:48;;;;;;;16.53;15.17;;;;;;;20.20;100.00;101798.72;5203314;28;20497;-80
2023/09/02 08:54:21;;;;;;;17.17;15.75;;;;;;;20.09;100.00;101807.97;5220699;28;20439;-79
2023/09/02 08:56:53;;;;;;;18.77;17.17;;;;;;;19.90;100.00;101805.13;5198943;28;20038;-81
2023/09/02 08:59:26;;;;;;;18.65;17.05;;;;;;;19.97;100.00;101801.38;5199032;28;20038;-80
2023/09/02 09:01:59;;;;;;;18.90;17.42;;;;;;;20.02;100.00;101797.63;5182262;28;20038;-80
2023/09/02 09:04:33;;;;;;;19.60;18.00;;;;;;;20.14;100.00;101795.44;5199989;28;20035;-79
2023/09/02 09:07:09;;;;;;;19.20;17.42;;;;;;;20.44;100.00;101803.16;5197616;28;20056;-79
2023/09/02 09:09:42;;;;;;;20.85;18.95;;;;;;;20.76;100.00;101807.25;5182840;28;20034;-81
2023/09/02 09:12:17;;;;;;;22.65;20.48;;;;;;;20.96;100.00;101811.75;5198995;28;20039;-81
2023/09/02 09:14:53;;;;;;;21.23;19.27;;;;;;;21.07;100.00;101816.63;5180871;28;20122;-80
2023/09/02 09:17:25;;;;;;;21.25;19.50;;;;;;;21.56;100.00;101813.75;5199309;28;20073;-79
2023/09/02 09:19:59;;;;;;;22.10;20.20;;;;;;;21.76;99.96;101824.38;5199962;28;20117;-81
2023/09/02 09:22:38;;;;;;;21.20;19.30;;;;;;;22.03;100.00;101813.47;5193029;28;20477;-80
2023/09/02 09:25:11;;;;;;;22.55;20.75;;;;;;;21.96;95.25;101817.31;5182007;28;20032;-79
2023/09/02 09:27:42;;;;;;;21.13;19.42;;;;;;;22.32;96.91;101822.81;5199395;28;20054;-80
2023/09/02 09:30:28;;;;;;;20.40;18.60;;;;;;;22.79;94.52;101825.97;5198544;28;20120;-80
2023/09/02 09:33:01;;;;;;;21.55;19.05;;;;;;;22.57;94.01;101827.88;5199501;28;20478;-80
2023/09/02 09:35:33;;;;;;;18.58;16.98;;;;;;;22.60;90.90;101841.94;5199453;28;20035;-78
2023/09/02 09:38:05;;;;;;;17.95;16.35;;;;;;;22.30;91.22;101845.94;5198280;28;20034;-79
2023/09/02 09:40:38;;;;;;;19.17;17.48;;;;;;;22.25;93.68;101853.22;5199030;28;20042;-80
2023/09/02 09:43:17;;;;;;;16.65;14.98;;;;;;;22.21;94.76;101860.44;5198473;28;20386;-80
2023/09/02 09:45:51;;;;;;;17.00;15.45;;;;;;;21.95;93.77;101868.72;5199057;28;20038;-79
2023/09/02 09:48:23;;;;;;;17.23;15.73;;;;;;;21.80;96.06;101871.09;5199464;28;20070;-80
2023/09/02 09:50:55;;;;;;;19.65;16.98;;;;;;;22.13;94.26;101872.34;5191879;28;20610;-80
2023/09/02 09:53:32;;;;;;;20.48;18.90;;;;;;;22.35;94.22;101856.34;5198942;28;20039;-80
2023/09/02 09:56:03;;;;;;;18.83;17.42;;;;;;;22.37;94.14;101863.31;5177229;28;20069;-79
2023/09/02 09:58:35;;;;;;;16.90;15.70;;;;;;;22.71;92.26;101855.56;5198702;28;20125;-78
2023/09/02 10:01:08;;;;;;;17.53;16.13;;;;;;;22.76;90.10;101858.88;5201920;28;20320;-78
2023/09/02 10:03:40;;;;;;;18.02;16.40;;;;;;;22.69;90.34;101868.09;5201196;28;20034;-79
2023/09/02 10:06:11;;;;;;;17.37;15.97;;;;;;;22.82;89.84;101869.22;5201908;28;20263;-79
2023/09/02 10:08:53;;;;;;;17.47;16.17;;;;;;;23.00;89.62;101859.50;5202001;28;20023;-79
2023/09/02 10:11:26;;;;;;;16.10;14.80;;;;;;;23.17;88.63;101874.69;5199518;28;20037;-78
2023/09/02 10:13:59;;;;;;;17.45;16.02;;;;;;;23.18;89.26;101865.75;5202052;28;20026;-79
2023/09/02 10:16:33;;;;;;;15.68;14.48;;;;;;;22.93;86.83;101877.56;5182546;28;20054;-78
2023/09/02 10:19:06;;;;;;;15.13;13.93;;;;;;;22.78;87.06;101878.25;5200561;28;20483;-77
2023/09/02 10:21:40;;;;;;;15.70;14.50;;;;;;;23.18;87.32;101892.34;5201402;28;20038;-79
2023/09/02 10:24:14;;;;;;;16.67;15.38;;;;;;;23.04;86.94;101897.44;5201032;28;20023;-80
2023/09/02 10:26:52;;;;;;;14.75;13.50;;;;;;;23.33;87.18;101882.78;5200675;28;20041;-79
2023/09/02 10:29:32;;;;;;;15.05;13.70;;;;;;;24.81;84.34;101887.59;5203214;28;20537;-78
2023/09/02 10:32:10;;;;;;;14.32;13.07;;;;;;;26.22;78.21;101897.22;5202295;28;21687;-80
2023/09/02 10:34:55;;;;;;;14.18;12.82;;;;;;;26.67;75.32;101894.50;5200181;28;20030;-80
2023/09/02 10:37:34;;;;;;;15.52;14.13;;;;;;;25.71;72.60;101902.06;5201191;28;20030;-79
2023/09/02 10:40:09;;;;;;;15.27;13.90;;;;;;;25.22;74.31;101895.94;5203219;28;20137;-80
2023/09/02 10:42:41;;;;;;;15.48;13.98;;;;;;;24.87;76.31;101897.91;5201826;28;20070;-80
2023/09/02 10:45:13;;;;;;;16.17;14.88;;;;;;;24.68;76.50;101898.06;5203546;28;20058;-78
2023/09/02 10:47:45;;;;;;;17.40;16.00;;;;;;;24.36;77.44;101906.84;5202306;28;20041;-78
2023/09/02 10:50:20;;;;;;;17.67;16.23;;;;;;;24.03;78.69;101906.81;5196417;28;20034;-80
2023/09/02 10:52:53;;;;;;;17.77;16.35;;;;;;;23.76;79.71;101909.03;5200635;28;20022;-79
2023/09/02 10:55:24;;;;;;;18.38;16.88;;;;;;;23.72;81.47;101908.34;5202680;28;20110;-79
2023/09/02 10:57:56;;;;;;;19.03;17.23;;;;;;;23.41;82.43;101903.66;5200804;28;20557;-78
2023/09/02 11:00:28;;;;;;;19.15;17.45;;;;;;;23.28;84.22;101898.97;5202973;28;20281;-79
2023/09/02 11:03:01;;;;;;;20.48;18.67;;;;;;;23.32;85.06;101893.50;5202328;28;20026;-78
2023/09/02 11:05:52;;;;;;;;;;;;;;;24.22;83.76;101901.38;5197485;28;20038;-79
2023/09/02 11:08:49;;;;;;;23.00;21.00;;;;;;;23.71;85.34;101906.59;5184842;28;20277;-79
2023/09/02 11:11:21;;;;;;;21.42;19.48;;;;;;;23.50;85.74;101913.88;5190026;28;20101;-80
2023/09/02 11:14:08;;;;;;;22.17;20.08;;;;;;;23.01;87.21;101908.25;5200892;28;20044;-79
2023/09/02 11:16:40;;;;;;;22.38;20.20;;;;;;;22.38;89.18;101909.34;5201597;28;20507;-79
2023/09/02 11:19:12;;;;;;;;;;;;;;;22.76;87.24;101914.69;5202531;28;20479;-80
2023/09/02 11:21:46;;;;;;;22.10;20.20;;;;;;;21.92;91.44;101912.16;5200411;28;19918;-80
2023/09/02 11:24:20;;;;;;;23.02;21.13;;;;;;;21.87;93.54;101915.97;5201454;28;20537;-80
2023/09/02 11:26:53;;;;;;;21.75;19.80;;;;;;;21.60;93.50;101922.34;5184016;28;20486;-80
2023/09/02 11:29:29;;;;;;;22.77;20.88;;;;;;;21.67;93.37;101923.81;5202394;28;20045;-79
2023/09/02 11:32:03;;;;;;;23.77;21.77;;;;;;;21.44;94.01;101930.03;5202062;28;20066;-79
2023/09/02 11:34:34;;;;;;;24.83;22.70;;;;;;;21.44;94.00;101922.06;5201943;28;20460;-80
2023/09/02 11:37:06;;;;;;;22.90;20.90;;;;;;;21.42;93.76;101923.91;5184332;28;20117;-80